createdAt,value
2022-07-29T00:00:29.908Z,82.100000
2022-07-29T00:05:31.060Z,82.100000
2022-07-29T00:10:31.972Z,82.300000
2022-07-29T00:15:32.923Z,82.600000
2022-07-29T00:20:33.914Z,82.500000
2022-07-29T00:25:34.992Z,82.500000
2022-07-29T00:30:35.786Z,82.700000
2022-07-29T00:35:36.778Z,82.800000
2022-07-29T00:40:37.784Z,82.700000
2022-07-29T00:50:39.738Z,82.900000
2022-07-29T00:55:40.658Z,82.800000
2022-07-29T01:00:41.875Z,83.000000
2022-07-29T01:05:50.008Z,83.200000
2022-07-29T01:10:43.750Z,83.100000
2022-07-29T01:15:49.532Z,83.100000
2022-07-29T01:20:45.665Z,83.100000
2022-07-29T01:25:46.575Z,83.100000
2022-07-29T01:30:47.495Z,83.100000
2022-07-29T01:35:48.495Z,83.100000
2022-07-29T01:40:49.536Z,83.200000
2022-07-29T01:45:50.605Z,83.500000
2022-07-29T01:50:51.601Z,83.400000
2022-07-29T01:55:52.584Z,83.500000
2022-07-29T02:00:53.565Z,83.600000
2022-07-29T02:05:54.608Z,84.200000
2022-07-29T02:10:55.593Z,83.600000
2022-07-29T02:15:56.644Z,83.600000
2022-07-29T02:20:57.523Z,83.700000
2022-07-29T02:25:58.439Z,83.600000
2022-07-29T02:30:59.447Z,83.600000
2022-07-29T02:36:00.365Z,83.600000
2022-07-29T02:41:01.290Z,83.700000
2022-07-29T02:46:02.359Z,83.600000
2022-07-29T02:51:03.365Z,83.766667
2022-07-29T02:56:04.371Z,83.800000
2022-07-29T03:01:05.312Z,83.900000
2022-07-29T03:06:06.318Z,84.200000
2022-07-29T03:11:07.288Z,84.200000
2022-07-29T03:16:08.291Z,84.100000
2022-07-29T03:21:09.228Z,84.300000
2022-07-29T03:26:10.191Z,84.600000
2022-07-29T03:31:11.306Z,84.700000
2022-07-29T03:36:12.237Z,85.200000
2022-07-29T03:41:13.178Z,84.900000
2022-07-29T03:46:14.294Z,84.700000
2022-07-29T03:51:15.177Z,85.000000
2022-07-29T03:55:16.114Z,84.800000
2022-07-29T04:00:17.075Z,84.500000
2022-07-29T04:05:18.091Z,84.500000
2022-07-29T04:10:25.217Z,84.600000
2022-07-29T04:15:19.961Z,84.800000
2022-07-29T04:20:21.094Z,84.900000
2022-07-29T04:25:22.139Z,84.600000
2022-07-29T04:30:23.123Z,84.500000
2022-07-29T04:35:24.158Z,84.600000
2022-07-29T04:40:25.125Z,84.500000
2022-07-29T04:45:26.239Z,84.400000
2022-07-29T04:50:27.212Z,84.500000
2022-07-29T04:55:28.194Z,85.100000
2022-07-29T05:00:33.638Z,84.900000
2022-07-29T05:05:30.329Z,85.200000
2022-07-29T05:10:31.329Z,84.900000
2022-07-29T05:15:32.381Z,85.000000
2022-07-29T05:20:33.351Z,84.500000
2022-07-29T05:25:43.488Z,84.500000
2022-07-29T05:30:35.222Z,84.600000
2022-07-29T05:35:36.052Z,84.000000
2022-07-29T05:40:37.127Z,83.900000
2022-07-29T05:45:49.869Z,83.800000
2022-07-29T05:50:44.296Z,83.500000
2022-07-29T05:55:40.244Z,83.300000
2022-07-29T06:00:41.256Z,83.100000
2022-07-29T06:05:42.187Z,82.800000
2022-07-29T06:10:43.111Z,82.400000
2022-07-29T06:15:44.253Z,82.300000
2022-07-29T06:20:45.163Z,82.200000
2022-07-29T06:25:46.088Z,81.900000
2022-07-29T06:30:47.172Z,82.300000
2022-07-29T06:35:55.031Z,82.000000
2022-07-29T06:40:48.957Z,82.300000
2022-07-29T06:45:49.976Z,82.100000
2022-07-29T06:50:51.105Z,82.000000
2022-07-29T06:55:52.071Z,81.900000
2022-07-29T07:00:53.139Z,81.800000
2022-07-29T07:05:55.084Z,81.300000
2022-07-29T07:10:55.051Z,81.700000
2022-07-29T07:15:56.009Z,81.600000
2022-07-29T07:20:57.023Z,81.400000
2022-07-29T07:25:58.040Z,81.500000
2022-07-29T07:30:58.966Z,81.300000
2022-07-29T07:35:59.990Z,81.200000
2022-07-29T07:41:00.985Z,80.900000
2022-07-29T07:46:02.102Z,80.300000
2022-07-29T07:51:03.008Z,80.133333
2022-07-29T07:56:12.429Z,79.350000
2022-07-29T08:01:05.077Z,78.200000
2022-07-29T08:06:06.049Z,78.200000
2022-07-29T08:11:09.769Z,78.100000
2022-07-29T08:16:08.056Z,78.000000
2022-07-29T08:21:08.883Z,77.000000
2022-07-29T08:26:10.055Z,76.600000
2022-07-29T08:31:11.148Z,76.400000
2022-07-29T08:36:12.059Z,76.100000
2022-07-29T08:41:12.971Z,75.800000
2022-07-29T08:46:14.097Z,75.600000
2022-07-29T08:51:15.026Z,75.100000
2022-07-29T08:55:15.864Z,74.600000
2022-07-29T09:00:16.864Z,73.700000
2022-07-29T09:05:17.831Z,74.600000
2022-07-29T09:10:18.846Z,73.700000
2022-07-29T09:15:19.766Z,72.300000
2022-07-29T09:20:20.881Z,72.500000
2022-07-29T09:25:21.854Z,72.200000
2022-07-29T09:30:25.458Z,71.700000
2022-07-29T09:40:24.697Z,71.200000
2022-07-29T09:45:25.730Z,71.400000
2022-07-29T09:50:26.631Z,70.700000
2022-07-29T09:55:27.606Z,69.300000
2022-07-29T10:00:28.647Z,69.400000
2022-07-29T10:05:36.158Z,69.900000
2022-07-29T10:10:30.777Z,69.100000
2022-07-29T10:15:31.790Z,68.400000
2022-07-29T10:20:32.725Z,68.900000
2022-07-29T10:35:35.519Z,69.100000
2022-07-29T10:40:36.493Z,69.500000
2022-07-29T10:45:37.530Z,68.900000
2022-07-29T10:50:38.544Z,69.200000
2022-07-29T10:55:43.072Z,70.000000
2022-07-29T11:00:40.460Z,70.300000
2022-07-29T11:05:41.420Z,69.200000
2022-07-29T11:10:42.357Z,69.700000
2022-07-29T11:15:43.219Z,69.600000
2022-07-29T11:20:44.219Z,69.500000
2022-07-29T11:25:51.071Z,68.700000
2022-07-29T11:30:45.971Z,69.100000
2022-07-29T11:35:53.713Z,68.500000
2022-07-29T11:40:49.082Z,68.200000
2022-07-29T11:45:48.912Z,68.400000
2022-07-29T11:50:50.064Z,68.600000
2022-07-29T11:55:52.109Z,68.400000
2022-07-29T12:00:52.075Z,69.400000
2022-07-29T12:05:52.813Z,68.700000
2022-07-29T12:10:53.765Z,68.700000
2022-07-29T12:15:54.711Z,68.500000
2022-07-29T12:20:55.673Z,68.600000
2022-07-29T12:25:56.649Z,68.700000
2022-07-29T12:30:57.638Z,68.600000
2022-07-29T12:36:06.835Z,68.300000
2022-07-29T12:40:59.470Z,68.900000
2022-07-29T12:46:00.462Z,66.200000
2022-07-29T12:51:01.542Z,66.000000
2022-07-29T12:56:07.982Z,65.700000
2022-07-29T13:01:03.511Z,65.950000
2022-07-29T13:06:04.430Z,66.583333
2022-07-29T13:11:05.374Z,66.300000
2022-07-29T13:16:06.350Z,66.700000
2022-07-29T13:21:07.238Z,66.200000
2022-07-29T13:26:08.121Z,65.900000
2022-07-29T13:31:09.231Z,66.200000
2022-07-29T13:36:10.147Z,66.900000
2022-07-29T13:41:11.194Z,66.500000
2022-07-29T13:46:12.287Z,66.400000
2022-07-29T13:51:13.251Z,66.100000
2022-07-29T13:56:14.283Z,66.300000
2022-07-29T14:01:15.436Z,66.200000
2022-07-29T14:05:16.256Z,66.400000
2022-07-29T14:10:20.135Z,67.100000
2022-07-29T14:15:18.305Z,67.700000
2022-07-29T14:20:19.276Z,67.200000
2022-07-29T14:25:21.204Z,67.600000
2022-07-29T14:30:21.317Z,67.200000
2022-07-29T14:35:22.393Z,67.300000
2022-07-29T14:40:23.381Z,67.100000
2022-07-29T14:45:24.270Z,67.300000
2022-07-29T14:50:32.066Z,67.500000
2022-07-29T14:55:26.051Z,66.800000
2022-07-29T15:00:28.301Z,67.600000
2022-07-29T15:05:29.388Z,67.300000
2022-07-29T15:10:30.484Z,67.200000
2022-07-29T15:15:31.597Z,66.900000
2022-07-29T15:20:32.588Z,66.800000
2022-07-29T15:25:33.517Z,67.000000
2022-07-29T15:30:34.790Z,67.500000
2022-07-29T15:35:40.406Z,67.500000
2022-07-29T15:40:36.484Z,67.200000
2022-07-29T15:45:40.152Z,67.600000
2022-07-29T15:55:39.169Z,67.700000
2022-07-29T16:05:40.980Z,68.600000
2022-07-29T16:10:41.961Z,68.500000
2022-07-29T16:15:42.947Z,68.500000
2022-07-29T16:20:43.821Z,68.400000
2022-07-29T16:25:59.069Z,69.400000
2022-07-29T16:30:45.831Z,69.300000
2022-07-29T16:35:46.752Z,70.000000
2022-07-29T16:40:47.542Z,70.200000
2022-07-29T16:45:48.543Z,70.200000
2022-07-29T17:00:51.517Z,70.600000
2022-07-29T17:05:54.249Z,71.200000
2022-07-29T17:20:55.345Z,71.400000
2022-07-29T17:25:56.317Z,71.600000
2022-07-29T17:40:59.150Z,72.400000
2022-07-29T17:46:00.150Z,72.400000
2022-07-29T17:56:02.224Z,73.300000
2022-07-29T18:01:03.322Z,73.300000
2022-07-29T18:06:04.202Z,73.300000
2022-07-29T18:16:06.262Z,74.000000
2022-07-29T18:26:08.221Z,74.600000
2022-07-29T18:31:09.239Z,74.900000
2022-07-29T18:41:11.247Z,75.500000
2022-07-29T18:46:12.398Z,75.300000
2022-07-29T18:51:13.345Z,75.800000
2022-07-29T18:56:14.278Z,75.200000
2022-07-29T19:10:17.098Z,76.300000
2022-07-29T19:15:20.460Z,76.300000
2022-07-29T19:35:22.269Z,77.100000
2022-07-29T19:45:24.195Z,77.600000
2022-07-29T19:50:25.078Z,77.500000
2022-07-29T20:00:26.968Z,78.100000
2022-07-29T20:05:28.353Z,77.600000
2022-07-29T20:10:28.782Z,77.700000
2022-07-29T20:15:29.859Z,78.000000
2022-07-29T20:20:30.905Z,77.800000
2022-07-29T20:25:31.927Z,78.200000
2022-07-29T20:30:33.036Z,78.100000
2022-07-29T20:35:33.977Z,78.300000
2022-07-29T20:40:34.999Z,78.400000
2022-07-29T20:45:35.950Z,78.200000
2022-07-29T20:50:36.885Z,78.300000
2022-07-29T20:55:37.857Z,78.500000
2022-07-29T21:00:38.774Z,78.400000
2022-07-29T21:05:39.735Z,78.800000
2022-07-29T21:10:40.762Z,78.400000
2022-07-29T21:15:41.886Z,78.900000
2022-07-29T21:20:42.737Z,78.600000
2022-07-29T21:25:43.652Z,78.700000
2022-07-29T21:30:44.504Z,78.600000
2022-07-29T21:36:15.097Z,78.400000
2022-07-29T21:40:46.438Z,78.600000
2022-07-29T21:45:47.590Z,78.500000
2022-07-29T21:50:48.546Z,78.100000
2022-07-29T21:55:49.573Z,78.300000
2022-07-29T22:00:50.573Z,78.600000
2022-07-29T22:05:51.763Z,78.300000
2022-07-29T22:10:52.783Z,78.200000
2022-07-29T22:15:53.766Z,78.200000
2022-07-29T22:20:54.876Z,78.500000
2022-07-29T22:25:55.912Z,78.500000
2022-07-29T22:30:56.958Z,79.100000
2022-07-29T22:35:57.737Z,78.700000
2022-07-29T22:40:58.760Z,78.400000
2022-07-29T22:45:59.810Z,78.700000
2022-07-29T22:51:00.701Z,79.000000
2022-07-29T22:56:01.703Z,79.000000
2022-07-29T23:01:03.055Z,79.083333
2022-07-29T23:06:03.811Z,79.100000
2022-07-29T23:11:04.797Z,79.266667
2022-07-29T23:16:05.845Z,79.100000
2022-07-29T23:21:06.721Z,79.000000
2022-07-29T23:26:07.665Z,79.200000
2022-07-29T23:31:08.886Z,79.400000
2022-07-29T23:36:09.757Z,79.300000
2022-07-29T23:41:10.798Z,79.300000
2022-07-29T23:46:11.775Z,79.300000
2022-07-29T23:51:12.710Z,79.200000
2022-07-29T23:56:13.669Z,79.300000
